createdAt,value
2019-01-11T00:01:39.176Z,6.22
2019-01-11T00:04:32.235Z,5.37
2019-01-11T00:07:26.071Z,9.08
2019-01-11T00:10:19.624Z,6.65
2019-01-11T00:13:12.425Z,10.18
2019-01-11T00:16:08.294Z,7.33
2019-01-11T00:18:57.515Z,5.87
2019-01-11T00:21:51.079Z,3.80
2019-01-11T00:24:43.878Z,9.95
2019-01-11T00:27:36.935Z,4.33
2019-01-11T00:30:30.760Z,5.87
2019-01-11T00:33:23.563Z,7.85
2019-01-11T00:36:16.618Z,3.85
2019-01-11T00:39:20.938Z,7.80
2019-01-11T00:42:13.747Z,5.58
2019-01-11T00:45:06.798Z,15.68
2019-01-11T00:47:59.849Z,5.40
2019-01-11T00:50:53.928Z,12.40
2019-01-11T00:53:46.982Z,9.08
2019-01-11T00:56:39.783Z,4.05
2019-01-11T00:59:32.583Z,7.00
2019-01-11T01:02:25.639Z,7.55
2019-01-11T01:05:14.599Z,10.35
2019-01-11T01:08:11.239Z,7.67
2019-01-11T01:11:04.295Z,7.80
2019-01-11T01:13:57.352Z,11.10
2019-01-11T01:16:51.176Z,12.35
2019-01-11T01:19:43.974Z,3.42
2019-01-11T01:22:37.802Z,9.00
2019-01-11T01:25:30.600Z,12.00
2019-01-11T01:28:23.398Z,6.47
2019-01-11T01:31:16.455Z,6.03
2019-01-11T01:34:09.510Z,4.15
2019-01-11T01:37:02.312Z,5.95
2019-01-11T01:39:55.204Z,8.23
2019-01-11T01:42:47.912Z,11.25
2019-01-11T01:45:40.972Z,8.50
2019-01-11T01:48:34.286Z,11.97
2019-01-11T01:51:27.336Z,11.90
2019-01-11T01:54:21.157Z,7.05
2019-01-11T01:57:14.215Z,4.70
2019-01-11T02:00:07.271Z,10.03
2019-01-11T02:03:00.327Z,4.70
2019-01-11T02:05:53.383Z,4.20
2019-01-11T02:08:46.438Z,6.12
2019-01-11T02:11:42.054Z,8.93
2019-01-11T02:14:35.112Z,13.68
2019-01-11T02:17:27.912Z,10.85
2019-01-11T02:20:19.944Z,8.85
2019-01-11T02:23:13.001Z,15.83
2019-01-11T02:26:05.798Z,12.30
2019-01-11T02:28:58.605Z,13.40
2019-01-11T02:31:51.403Z,4.87
2019-01-11T02:34:40.626Z,4.58
2019-01-11T02:37:33.461Z,14.03
2019-01-11T02:40:26.472Z,19.92
2019-01-11T02:43:19.532Z,14.45
2019-01-11T02:46:13.099Z,6.42
2019-01-11T02:49:05.900Z,15.88
2019-01-11T02:51:56.624Z,8.00
2019-01-11T02:54:49.704Z,5.45
2019-01-11T02:57:42.509Z,20.43
2019-01-11T03:00:36.585Z,7.35
2019-01-11T03:03:30.412Z,8.18
2019-01-11T03:06:23.464Z,12.07
2019-01-11T03:09:16.263Z,7.10
2019-01-11T03:12:09.063Z,19.10
2019-01-11T03:15:02.382Z,18.23
2019-01-11T03:17:55.175Z,4.87
2019-01-11T03:20:48.748Z,6.60
2019-01-11T03:23:41.544Z,5.20
2019-01-11T03:26:34.603Z,8.28
2019-01-11T03:29:30.476Z,9.83
2019-01-11T03:32:23.534Z,7.20
2019-01-11T03:35:31.177Z,15.15
2019-01-11T03:38:25.256Z,8.95
2019-01-11T03:41:18.316Z,13.05
2019-01-11T03:44:11.112Z,8.38
2019-01-11T03:47:03.917Z,17.10
2019-01-11T03:49:56.711Z,16.75
2019-01-11T03:52:49.515Z,14.63
2019-01-11T03:55:38.672Z,14.30
2019-01-11T03:58:31.526Z,7.45
2019-01-11T04:01:28.169Z,11.95
2019-01-11T04:04:21.223Z,8.80
2019-01-11T04:07:14.034Z,11.35
2019-01-11T04:10:10.664Z,8.15
2019-01-11T04:13:03.727Z,16.85
2019-01-11T04:15:56.776Z,10.98
2019-01-11T04:18:51.623Z,11.78
2019-01-11T04:21:45.705Z,10.13
2019-01-11T04:24:39.016Z,9.68
2019-01-11T04:27:31.823Z,12.10
2019-01-11T04:30:21.045Z,16.62
2019-01-11T04:33:14.098Z,14.18
2019-01-11T04:36:06.891Z,21.97
2019-01-11T04:39:07.623Z,15.75
2019-01-11T04:42:00.935Z,13.40
2019-01-11T04:44:53.754Z,27.32
2019-01-11T04:47:47.818Z,12.45
2019-01-11T04:50:41.645Z,18.48
2019-01-11T04:53:34.696Z,12.78
2019-01-11T04:56:27.511Z,23.67
2019-01-11T04:59:20.303Z,13.53
2019-01-11T05:02:13.096Z,17.02
2019-01-11T05:05:05.895Z,15.63
2019-01-11T05:07:58.700Z,24.57
2019-01-11T05:10:51.757Z,20.70
2019-01-11T05:13:59.399Z,15.18
2019-01-11T05:16:52.200Z,20.52
2019-01-11T05:19:44.998Z,18.23
2019-01-11T05:22:38.059Z,33.15
2019-01-11T05:25:32.134Z,14.40
2019-01-11T05:28:25.961Z,38.33
2019-01-11T05:31:18.759Z,15.45
2019-01-11T05:34:11.562Z,21.85
2019-01-11T05:37:04.360Z,32.90
2019-01-11T05:39:58.184Z,17.37
2019-01-11T05:42:51.242Z,22.27
2019-01-11T05:45:44.297Z,21.85
2019-01-11T05:48:44.266Z,28.85
2019-01-11T05:51:38.860Z,30.45
2019-01-11T05:54:31.657Z,21.33
2019-01-11T05:57:25.742Z,28.40
2019-01-11T06:00:18.540Z,25.92
2019-01-11T06:03:11.591Z,24.43
2019-01-11T06:06:04.913Z,25.88
2019-01-11T06:08:57.721Z,17.62
2019-01-11T06:11:51.063Z,20.15
2019-01-11T06:14:43.814Z,18.52
2019-01-11T06:17:36.615Z,19.30
2019-01-11T06:20:31.722Z,34.50
2019-01-11T06:23:25.033Z,17.95
2019-01-11T06:26:17.834Z,27.20
2019-01-11T06:29:10.889Z,22.82
2019-01-11T06:32:03.700Z,16.50
2019-01-11T06:34:56.488Z,15.90
2019-01-11T06:37:49.545Z,16.35
2019-01-11T06:40:42.350Z,17.37
2019-01-11T06:43:35.148Z,19.00
2019-01-11T06:46:28.203Z,17.90
2019-01-11T06:49:21.261Z,13.88
2019-01-11T06:52:15.082Z,19.65
2019-01-11T06:55:08.135Z,10.38
2019-01-11T06:58:02.477Z,16.48
2019-01-11T07:00:56.307Z,23.92
2019-01-11T07:03:49.102Z,16.37
2019-01-11T07:06:42.424Z,12.18
2019-01-11T07:09:36.749Z,11.40
2019-01-11T07:12:29.806Z,11.60
2019-01-11T07:15:22.603Z,12.35
2019-01-11T07:18:11.953Z,16.75
2019-01-11T07:21:05.134Z,13.55
2019-01-11T07:23:57.929Z,11.48
2019-01-11T07:26:50.728Z,13.15
2019-01-11T07:29:43.786Z,22.42
2019-01-11T07:32:36.840Z,15.18
2019-01-11T07:35:30.922Z,12.53
2019-01-11T07:38:23.975Z,11.33
2019-01-11T07:41:17.037Z,13.32
2019-01-11T07:44:10.086Z,9.73
2019-01-11T07:46:59.220Z,17.20
2019-01-11T07:49:53.128Z,13.70
2019-01-11T07:52:46.446Z,16.02
2019-01-11T07:55:39.512Z,13.22
2019-01-11T07:58:28.713Z,12.13
2019-01-11T08:01:17.929Z,18.15
2019-01-11T08:04:10.733Z,9.43
2019-01-11T08:07:03.790Z,18.98
2019-01-11T08:09:57.355Z,8.30
2019-01-11T08:12:50.156Z,11.53
2019-01-11T08:15:43.465Z,13.53
2019-01-11T08:18:37.288Z,12.65
2019-01-11T08:21:30.090Z,11.43
2019-01-11T08:24:23.142Z,11.28
2019-01-11T08:27:17.226Z,18.00
2019-01-11T08:30:11.562Z,10.88
2019-01-11T08:33:04.615Z,9.03
2019-01-11T08:36:23.530Z,12.33
2019-01-11T08:39:12.491Z,10.93
2019-01-11T08:42:05.294Z,12.85
2019-01-11T08:44:58.086Z,7.67
2019-01-11T08:47:50.895Z,9.53
2019-01-11T08:50:43.948Z,11.53
2019-01-11T08:53:37.771Z,15.48
2019-01-11T08:56:30.821Z,6.42
2019-01-11T08:59:23.622Z,8.93
2019-01-11T09:02:12.877Z,9.18
2019-01-11T09:05:01.801Z,15.63
2019-01-11T09:07:55.882Z,8.90
2019-01-11T09:10:48.680Z,6.70
2019-01-11T09:13:37.687Z,7.03
2019-01-11T09:16:33.000Z,15.30
2019-01-11T09:19:26.311Z,7.62
2019-01-11T09:22:14.063Z,9.73
2019-01-11T09:25:06.792Z,9.90
2019-01-11T09:27:59.846Z,5.58
2019-01-11T09:30:52.910Z,8.85
2019-01-11T09:33:45.708Z,19.90
2019-01-11T09:36:39.019Z,15.95
2019-01-11T09:39:32.328Z,11.18
2019-01-11T09:42:21.545Z,12.20
2019-01-11T09:45:14.601Z,16.23
2019-01-11T09:48:07.655Z,11.03
2019-01-11T09:51:01.735Z,23.35
2019-01-11T09:53:55.815Z,11.73
2019-01-11T09:56:48.873Z,11.22
2019-01-11T09:59:42.954Z,10.40
2019-01-11T10:02:49.588Z,11.50
2019-01-11T10:08:47.978Z,11.48
2019-01-11T10:11:41.033Z,11.05
2019-01-11T10:14:33.839Z,13.60
2019-01-11T10:17:26.891Z,11.53
2019-01-11T10:20:19.692Z,8.83
2019-01-11T10:23:12.494Z,12.18
2019-01-11T10:26:05.288Z,12.68
2019-01-11T10:29:01.928Z,12.50
2019-01-11T10:31:55.755Z,18.70
2019-01-11T10:34:49.321Z,24.10
2019-01-11T10:37:42.123Z,21.68
2019-01-11T10:40:35.688Z,19.75
2019-01-11T10:43:28.743Z,32.58
2019-01-11T10:46:33.068Z,26.42
2019-01-11T10:49:25.869Z,19.60
2019-01-11T10:52:19.946Z,26.85
2019-01-11T10:55:13.768Z,14.47
2019-01-11T10:58:07.081Z,20.88
2019-01-11T11:00:56.392Z,17.35
2019-01-11T11:03:45.514Z,27.37
2019-01-11T11:06:38.570Z,36.95
2019-01-11T11:09:31.629Z,27.87
2019-01-11T11:12:24.425Z,27.42
2019-01-11T11:15:17.739Z,25.10
2019-01-11T11:18:11.050Z,19.90
2019-01-11T11:21:04.106Z,36.68
2019-01-11T11:23:54.043Z,36.00
2019-01-11T11:26:47.145Z,27.45
2019-01-11T11:29:39.945Z,40.33
2019-01-11T11:32:37.095Z,24.25
2019-01-11T11:35:30.156Z,35.55
2019-01-11T11:38:22.967Z,36.83
2019-01-11T11:41:23.944Z,30.48
2019-01-11T11:44:17.780Z,32.55
2019-01-11T11:47:11.085Z,41.18
2019-01-11T11:50:04.138Z,46.25
2019-01-11T11:52:57.200Z,42.70
2019-01-11T11:55:51.017Z,34.38
2019-01-11T11:58:44.328Z,34.13
2019-01-11T12:01:37.169Z,49.38
2019-01-11T12:04:30.952Z,38.28
2019-01-11T12:07:24.057Z,43.05
2019-01-11T12:10:17.066Z,33.70
2019-01-11T12:13:09.865Z,27.73
2019-01-11T12:16:02.921Z,32.75
2019-01-11T12:18:55.730Z,32.75
2019-01-11T12:21:48.526Z,40.10
2019-01-11T12:24:37.993Z,54.15
2019-01-11T12:27:32.074Z,29.72
2019-01-11T12:30:35.115Z,31.80
2019-01-11T12:33:38.666Z,46.20
2019-01-11T12:36:41.705Z,36.50
2019-01-11T12:39:44.752Z,38.45
2019-01-11T12:42:47.785Z,32.40
2019-01-11T12:45:51.082Z,25.05
2019-01-11T12:48:53.873Z,36.98
2019-01-11T12:51:57.162Z,23.75
2019-01-11T12:54:59.949Z,34.53
2019-01-11T12:58:03.499Z,27.30
2019-01-11T13:01:07.560Z,23.85
2019-01-11T13:04:10.347Z,32.78
2019-01-11T13:07:13.384Z,32.48
2019-01-11T13:10:16.168Z,23.15
2019-01-11T13:13:19.210Z,25.32
2019-01-11T13:16:22.246Z,26.15
2019-01-11T13:19:25.047Z,34.50
2019-01-11T13:22:28.328Z,26.68
2019-01-11T13:25:32.149Z,24.52
2019-01-11T13:28:31.847Z,22.25
2019-01-11T13:31:34.888Z,15.95
2019-01-11T13:34:37.674Z,31.52
2019-01-11T13:37:40.715Z,26.23
2019-01-11T13:40:43.753Z,24.80
2019-01-11T13:43:47.817Z,18.65
2019-01-11T13:46:48.039Z,26.85
2019-01-11T13:49:51.081Z,21.50
2019-01-11T13:52:54.122Z,25.80
2019-01-11T13:55:57.170Z,25.08
2019-01-11T13:59:00.462Z,16.65
2019-01-11T14:02:03.497Z,19.67
2019-01-11T14:05:06.797Z,15.45
2019-01-11T14:08:10.090Z,15.83
2019-01-11T14:11:13.386Z,16.67
2019-01-11T14:14:16.427Z,20.12
2019-01-11T14:17:20.744Z,11.08
2019-01-11T14:20:24.811Z,12.23
2019-01-11T14:23:27.864Z,17.12
2019-01-11T14:26:31.664Z,20.92
2019-01-11T14:29:34.951Z,14.10
2019-01-11T14:32:38.248Z,22.42
2019-01-11T14:35:41.291Z,17.65
2019-01-11T14:38:44.587Z,18.37
2019-01-11T14:41:47.631Z,18.27
2019-01-11T14:44:45.301Z,16.10
2019-01-11T14:47:48.339Z,23.73
2019-01-11T14:50:52.143Z,14.40
2019-01-11T14:53:56.201Z,26.97
2019-01-11T14:56:58.985Z,12.85
2019-01-11T15:00:02.025Z,14.43
2019-01-11T15:03:05.322Z,14.00
2019-01-11T15:06:08.425Z,18.82
2019-01-11T15:09:12.170Z,16.25
2019-01-11T15:12:15.213Z,14.50
2019-01-11T15:18:35.627Z,22.77
2019-01-11T15:21:38.923Z,22.60
2019-01-11T15:24:41.963Z,18.10
2019-01-11T15:27:44.999Z,16.95
2019-01-11T15:30:48.043Z,16.17
2019-01-11T15:33:50.823Z,13.35
2019-01-11T15:36:54.120Z,20.55
2019-01-11T15:39:56.906Z,18.45
2019-01-11T15:43:01.233Z,14.78
2019-01-11T15:46:04.268Z,16.27
2019-01-11T15:49:07.050Z,19.45
2019-01-11T15:52:10.088Z,21.73
2019-01-11T15:55:13.129Z,17.05
2019-01-11T15:58:16.423Z,11.22
2019-01-11T16:01:19.208Z,26.25
2019-01-11T16:04:21.991Z,16.37
2019-01-11T16:07:39.112Z,20.23
2019-01-11T16:10:42.153Z,16.75
2019-01-11T16:13:45.192Z,18.20
2019-01-11T16:17:44.041Z,31.25
2019-01-11T16:20:47.084Z,25.48
2019-01-11T16:23:50.129Z,30.82
2019-01-11T16:26:53.162Z,30.02
2019-01-11T16:29:56.202Z,30.02
2019-01-11T16:32:59.246Z,22.35
2019-01-11T16:36:02.543Z,25.35
2019-01-11T16:39:05.580Z,26.65
2019-01-11T16:42:08.359Z,25.55
2019-01-11T16:45:11.659Z,31.90
2019-01-11T16:48:14.698Z,33.33
2019-01-11T16:51:17.742Z,27.55
2019-01-11T16:54:21.035Z,30.48
2019-01-11T16:57:24.846Z,26.45
2019-01-11T17:00:24.105Z,22.62
2019-01-11T17:03:26.837Z,25.25
2019-01-11T17:06:29.617Z,28.83
2019-01-11T17:09:32.929Z,29.75
2019-01-11T17:12:41.591Z,25.80
2019-01-11T17:15:38.985Z,21.50
2019-01-11T17:18:42.024Z,18.55
2019-01-11T17:21:45.065Z,32.58
2019-01-11T17:24:48.364Z,29.32
2019-01-11T17:27:51.400Z,24.47
2019-01-11T17:30:54.955Z,33.73
2019-01-11T17:33:57.994Z,17.10
2019-01-11T17:37:01.291Z,27.60
2019-01-11T17:40:04.587Z,25.55
2019-01-11T17:43:08.550Z,28.02
2019-01-11T17:46:11.435Z,32.65
2019-01-11T17:49:15.244Z,28.77
2019-01-11T17:52:19.310Z,25.97
2019-01-11T17:55:22.348Z,33.15
2019-01-11T17:58:25.643Z,36.15
2019-01-11T18:01:28.944Z,38.20
2019-01-11T18:04:31.979Z,37.08
2019-01-11T18:07:35.288Z,30.92
2019-01-11T18:10:38.571Z,33.42
2019-01-11T18:13:41.611Z,30.75
2019-01-11T18:16:45.418Z,33.15
2019-01-11T18:19:48.976Z,36.73
2019-01-11T18:22:52.012Z,31.48
2019-01-11T18:25:51.981Z,34.03
2019-01-11T18:28:54.772Z,32.83
2019-01-11T18:31:57.805Z,30.70
2019-01-11T18:35:01.109Z,25.92
2019-01-11T18:38:04.399Z,32.95
2019-01-11T18:41:08.725Z,34.73
2019-01-11T18:44:13.037Z,30.30
2019-01-11T18:47:16.076Z,27.07
2019-01-11T18:50:20.909Z,42.38
2019-01-11T18:53:23.949Z,29.67
2019-01-11T18:56:28.314Z,42.90
2019-01-11T18:59:32.347Z,35.85
2019-01-11T19:02:34.632Z,32.23
2019-01-11T19:05:37.918Z,31.05
2019-01-11T19:08:41.196Z,30.82
2019-01-11T19:11:44.240Z,30.72
2019-01-11T19:14:48.042Z,23.47
2019-01-11T19:17:51.122Z,31.25
2019-01-11T19:20:56.950Z,22.00
2019-01-11T19:24:00.236Z,20.52
2019-01-11T19:27:03.063Z,23.30
2019-01-11T19:30:06.827Z,32.58
2019-01-11T19:33:09.614Z,24.35
2019-01-11T19:36:12.392Z,23.52
2019-01-11T19:39:16.979Z,21.87
2019-01-11T19:42:20.279Z,22.80
2019-01-11T19:45:24.849Z,21.60
2019-01-11T19:48:28.136Z,22.00
2019-01-11T19:51:31.689Z,17.52
2019-01-11T19:54:34.492Z,17.65
2019-01-11T19:57:38.546Z,18.85
2019-01-11T20:00:41.848Z,15.72
2019-01-11T20:03:47.486Z,14.68
2019-01-11T20:06:51.255Z,16.85
2019-01-11T20:09:54.025Z,43.48
2019-01-11T20:12:57.066Z,15.72
2019-01-11T20:16:01.129Z,24.20
2019-01-11T20:19:04.171Z,24.75
2019-01-11T20:22:07.467Z,21.42
2019-01-11T20:25:10.769Z,14.43
2019-01-11T20:28:14.060Z,15.25
2019-01-11T20:31:17.109Z,17.73
2019-01-11T20:34:24.233Z,21.52
2019-01-11T20:37:27.279Z,15.23
2019-01-11T20:40:30.568Z,20.02
2019-01-11T20:43:33.613Z,24.57
2019-01-11T20:46:37.674Z,14.68
2019-01-11T20:49:40.969Z,19.90
2019-01-11T20:52:44.011Z,24.87
2019-01-11T20:55:47.059Z,32.33
2019-01-11T20:58:50.092Z,18.23
2019-01-11T21:01:53.129Z,23.62
2019-01-11T21:04:57.703Z,21.33
2019-01-11T21:08:00.743Z,13.48
2019-01-11T21:11:04.556Z,15.83
2019-01-11T21:14:09.644Z,25.72
2019-01-11T21:17:12.683Z,26.57
2019-01-11T21:20:15.723Z,16.77
2019-01-11T21:23:18.508Z,23.62
2019-01-11T21:26:21.802Z,21.95
2019-01-11T21:29:25.866Z,22.60
2019-01-11T21:32:30.210Z,18.67
2019-01-11T21:35:29.391Z,12.47
2019-01-11T21:38:34.475Z,13.48
2019-01-11T21:41:37.771Z,16.93
2019-01-11T21:44:40.561Z,12.03
2019-01-11T21:47:43.348Z,16.27
2019-01-11T21:50:46.891Z,13.53
2019-01-11T21:53:55.704Z,14.53
2019-01-11T21:56:53.223Z,21.65
2019-01-11T21:59:59.339Z,13.60
2019-01-11T22:03:02.120Z,19.05
2019-01-11T22:06:05.930Z,16.30
2019-01-11T22:09:09.516Z,17.70
2019-01-11T22:12:12.524Z,16.95
2019-01-11T22:15:15.564Z,21.60
2019-01-11T22:18:18.605Z,16.82
2019-01-11T22:21:21.642Z,15.85
2019-01-11T22:24:24.441Z,19.70
2019-01-11T22:27:27.464Z,11.68
2019-01-11T22:30:30.764Z,10.55
2019-01-11T22:33:42.779Z,16.00
2019-01-11T22:36:45.800Z,11.45
2019-01-11T22:39:48.586Z,11.10
2019-01-11T22:42:47.791Z,12.18
2019-01-11T22:45:46.992Z,16.32
2019-01-11T22:48:50.025Z,11.78
2019-01-11T22:51:53.841Z,16.75
2019-01-11T22:54:56.875Z,9.38
2019-01-11T22:57:59.658Z,13.18
2019-01-11T23:01:03.465Z,11.70
2019-01-11T23:04:07.784Z,12.60
2019-01-11T23:07:11.849Z,14.23
2019-01-11T23:10:15.146Z,9.20
2019-01-11T23:13:18.188Z,6.97
2019-01-11T23:16:21.221Z,9.48
2019-01-11T23:19:24.008Z,9.70
2019-01-11T23:22:26.794Z,13.05
2019-01-11T23:25:29.833Z,17.48
2019-01-11T23:28:32.872Z,10.70
2019-01-11T23:31:35.925Z,9.05
2019-01-11T23:34:38.696Z,11.53
2019-01-11T23:37:42.760Z,9.35
2019-01-11T23:40:46.055Z,9.80
2019-01-11T23:43:50.124Z,15.32
2019-01-11T23:46:53.673Z,12.78
2019-01-11T23:49:57.737Z,12.50
2019-01-11T23:53:00.776Z,20.77
2019-01-11T23:56:03.819Z,12.33
2019-01-11T23:59:07.629Z,14.73
